KOAJ/OAJ METAR and TAF weather

Enter ICAO airport designator
Station Type Date Time Source
KOAJ METAR 2022/07/03 13:56 UTC NOAA

KOAJ 031356Z 28004KT 10SM FEW009 28/24 A3004 RMK AO2 SLP174 T02780244


Station Type Date Time Source
KOAJ Decoded METAR 2022/07/03 13:56 UTC NOAA

Jacksonville, Albert J Ellis Airport, NC, United States (KOAJ) 34-50N 077-37W
Jul 03, 2022 - 09:56 AM EDT / 2022.07.03 1356 UTC
Wind: from the W (280 degrees) at 5 MPH (4 KT):0
Visibility: 10 mile(s):0
Sky conditions: mostly clear
Temperature: 82.0 F (27.8 C)
Dew Point: 75.9 F (24.4 C)
Relative Humidity: 81%
Pressure (altimeter): 30.04 in. Hg (1017 hPa)
ob: KOAJ 031356Z 28004KT 10SM FEW009 28/24 A3004 RMK AO2 SLP174 T02780244
cycle: 14

Station Type Date Time Source
KOAJ TAF 2022/07/03 13:18 UTC NOAA

TAF
AMD KOAJ 031316Z 0313/0412 30005KT P6SM FEW045
TEMPO 0313/0314 BKN007
FM031900 VRB05KT P6SM SHRA VCTS SCT045CB
FM040400 VRB02KT P6SM BKN050
AMD LTD TO CLD VIS AND WIND

Example: see airport list